sensor_id;sensor_type;location;lat;lon;timestamp;P1;durP1;ratioP1;P2;durP2;ratioP2
15228;SDS011;7717;47.792;12.076;2023-07-20T00:00:33;6.57;;;5.30;;
15228;SDS011;7717;47.792;12.076;2023-07-20T00:03:13;7.63;;;6.37;;
15228;SDS011;7717;47.792;12.076;2023-07-20T00:05:44;6.87;;;6.23;;
15228;SDS011;7717;47.792;12.076;2023-07-20T00:08:10;7.07;;;5.30;;
15228;SDS011;7717;47.792;12.076;2023-07-20T00:10:36;6.47;;;5.80;;
15228;SDS011;7717;47.792;12.076;2023-07-20T00:13:02;7.10;;;5.50;;
15228;SDS011;7717;47.792;12.076;2023-07-20T00:15:27;6.70;;;5.57;;
15228;SDS011;7717;47.792;12.076;2023-07-20T00:17:53;7.30;;;5.30;;
15228;SDS011;7717;47.792;12.076;2023-07-20T00:20:18;7.17;;;5.43;;
15228;SDS011;7717;47.792;12.076;2023-07-20T00:22:44;7.60;;;5.93;;
15228;SDS011;7717;47.792;12.076;2023-07-20T00:25:09;6.47;;;5.83;;
15228;SDS011;7717;47.792;12.076;2023-07-20T00:27:36;6.57;;;5.23;;
15228;SDS011;7717;47.792;12.076;2023-07-20T00:30:03;6.13;;;4.80;;
15228;SDS011;7717;47.792;12.076;2023-07-20T00:32:29;5.27;;;4.30;;
15228;SDS011;7717;47.792;12.076;2023-07-20T00:34:54;5.53;;;4.30;;
15228;SDS011;7717;47.792;12.076;2023-07-20T00:37:19;7.80;;;4.90;;
15228;SDS011;7717;47.792;12.076;2023-07-20T00:39:45;5.37;;;4.53;;
15228;SDS011;7717;47.792;12.076;2023-07-20T00:42:13;6.20;;;4.77;;
15228;SDS011;7717;47.792;12.076;2023-07-20T00:44:39;6.43;;;5.37;;
15228;SDS011;7717;47.792;12.076;2023-07-20T00:47:04;7.13;;;5.77;;
15228;SDS011;7717;47.792;12.076;2023-07-20T00:49:31;8.07;;;4.90;;
15228;SDS011;7717;47.792;12.076;2023-07-20T00:51:57;5.37;;;4.43;;
15228;SDS011;7717;47.792;12.076;2023-07-20T00:54:22;5.43;;;4.23;;
15228;SDS011;7717;47.792;12.076;2023-07-20T00:56:48;5.57;;;4.30;;
15228;SDS011;7717;47.792;12.076;2023-07-20T00:59:15;6.73;;;4.47;;
15228;SDS011;7717;47.792;12.076;2023-07-20T01:01:40;6.43;;;4.47;;
15228;SDS011;7717;47.792;12.076;2023-07-20T01:04:06;5.10;;;4.23;;
15228;SDS011;7717;47.792;12.076;2023-07-20T01:06:41;6.17;;;3.93;;
15228;SDS011;7717;47.792;12.076;2023-07-20T01:09:11;6.47;;;4.80;;
15228;SDS011;7717;47.792;12.076;2023-07-20T01:12:12;6.10;;;4.40;;
15228;SDS011;7717;47.792;12.076;2023-07-20T01:14:43;7.10;;;4.57;;
15228;SDS011;7717;47.792;12.076;2023-07-20T01:17:09;8.27;;;4.50;;
15228;SDS011;7717;47.792;12.076;2023-07-20T01:19:35;7.00;;;4.57;;
15228;SDS011;7717;47.792;12.076;2023-07-20T01:22:05;5.07;;;4.60;;
15228;SDS011;7717;47.792;12.076;2023-07-20T01:24:45;6.10;;;4.63;;
15228;SDS011;7717;47.792;12.076;2023-07-20T01:33:20;7.00;;;4.03;;
15228;SDS011;7717;47.792;12.076;2023-07-20T01:35:46;6.20;;;4.37;;
15228;SDS011;7717;47.792;12.076;2023-07-20T01:38:16;4.57;;;4.17;;
15228;SDS011;7717;47.792;12.076;2023-07-20T01:40:43;4.80;;;4.40;;
15228;SDS011;7717;47.792;12.076;2023-07-20T01:43:09;5.53;;;4.17;;
15228;SDS011;7717;47.792;12.076;2023-07-20T01:45:35;7.03;;;4.93;;
15228;SDS011;7717;47.792;12.076;2023-07-20T01:48:01;8.47;;;4.60;;
15228;SDS011;7717;47.792;12.076;2023-07-20T01:50:28;7.47;;;4.50;;
15228;SDS011;7717;47.792;12.076;2023-07-20T01:52:54;5.30;;;4.03;;
15228;SDS011;7717;47.792;12.076;2023-07-20T01:55:19;6.60;;;4.63;;
15228;SDS011;7717;47.792;12.076;2023-07-20T01:57:44;6.00;;;4.67;;
15228;SDS011;7717;47.792;12.076;2023-07-20T02:00:10;4.40;;;4.00;;
15228;SDS011;7717;47.792;12.076;2023-07-20T02:02:37;6.47;;;4.60;;
15228;SDS011;7717;47.792;12.076;2023-07-20T02:05:02;6.17;;;4.60;;
15228;SDS011;7717;47.792;12.076;2023-07-20T02:07:28;4.80;;;4.40;;
15228;SDS011;7717;47.792;12.076;2023-07-20T02:09:57;4.67;;;4.27;;
15228;SDS011;7717;47.792;12.076;2023-07-20T02:12:22;6.73;;;4.10;;
15228;SDS011;7717;47.792;12.076;2023-07-20T02:14:48;4.60;;;4.20;;
15228;SDS011;7717;47.792;12.076;2023-07-20T02:17:15;4.73;;;3.67;;
15228;SDS011;7717;47.792;12.076;2023-07-20T02:19:40;4.37;;;3.97;;
15228;SDS011;7717;47.792;12.076;2023-07-20T02:22:06;6.13;;;3.97;;
15228;SDS011;7717;47.792;12.076;2023-07-20T02:24:32;3.77;;;3.47;;
15228;SDS011;7717;47.792;12.076;2023-07-20T02:26:58;5.30;;;4.17;;
15228;SDS011;7717;47.792;12.076;2023-07-20T02:29:23;7.80;;;4.10;;
15228;SDS011;7717;47.792;12.076;2023-07-20T02:31:49;6.37;;;4.47;;
15228;SDS011;7717;47.792;12.076;2023-07-20T02:34:14;4.90;;;3.67;;
15228;SDS011;7717;47.792;12.076;2023-07-20T02:36:39;6.53;;;4.23;;
15228;SDS011;7717;47.792;12.076;2023-07-20T02:39:07;6.27;;;4.13;;
15228;SDS011;7717;47.792;12.076;2023-07-20T02:41:33;4.47;;;3.60;;
15228;SDS011;7717;47.792;12.076;2023-07-20T02:43:59;6.43;;;4.47;;
15228;SDS011;7717;47.792;12.076;2023-07-20T02:46:25;10.63;;;4.40;;
15228;SDS011;7717;47.792;12.076;2023-07-20T02:48:50;4.80;;;4.30;;
15228;SDS011;7717;47.792;12.076;2023-07-20T02:51:15;10.90;;;5.23;;
15228;SDS011;7717;47.792;12.076;2023-07-20T02:53:41;4.50;;;4.10;;
15228;SDS011;7717;47.792;12.076;2023-07-20T02:56:06;5.00;;;3.73;;
15228;SDS011;7717;47.792;12.076;2023-07-20T02:58:33;5.00;;;3.90;;
15228;SDS011;7717;47.792;12.076;2023-07-20T03:01:02;6.13;;;4.40;;
15228;SDS011;7717;47.792;12.076;2023-07-20T03:03:27;4.77;;;3.90;;
15228;SDS011;7717;47.792;12.076;2023-07-20T03:05:53;7.20;;;4.47;;
15228;SDS011;7717;47.792;12.076;2023-07-20T03:08:19;4.20;;;3.80;;
15228;SDS011;7717;47.792;12.076;2023-07-20T03:10:45;4.43;;;3.73;;
15228;SDS011;7717;47.792;12.076;2023-07-20T03:13:10;5.37;;;4.07;;
15228;SDS011;7717;47.792;12.076;2023-07-20T03:15:36;5.67;;;3.87;;
15228;SDS011;7717;47.792;12.076;2023-07-20T03:18:01;4.37;;;3.37;;
15228;SDS011;7717;47.792;12.076;2023-07-20T03:20:29;4.27;;;3.87;;
15228;SDS011;7717;47.792;12.076;2023-07-20T03:22:54;4.97;;;3.23;;
15228;SDS011;7717;47.792;12.076;2023-07-20T03:25:19;5.37;;;4.13;;
15228;SDS011;7717;47.792;12.076;2023-07-20T03:27:46;6.37;;;3.57;;
15228;SDS011;7717;47.792;12.076;2023-07-20T03:30:11;5.33;;;3.67;;
15228;SDS011;7717;47.792;12.076;2023-07-20T03:32:37;4.97;;;3.80;;
15228;SDS011;7717;47.792;12.076;2023-07-20T03:35:05;7.20;;;3.80;;
15228;SDS011;7717;47.792;12.076;2023-07-20T03:37:31;5.97;;;4.53;;
15228;SDS011;7717;47.792;12.076;2023-07-20T03:39:56;4.37;;;4.00;;
15228;SDS011;7717;47.792;12.076;2023-07-20T03:42:22;8.33;;;4.20;;
15228;SDS011;7717;47.792;12.076;2023-07-20T03:44:48;9.27;;;4.17;;
15228;SDS011;7717;47.792;12.076;2023-07-20T03:47:13;6.43;;;4.17;;
15228;SDS011;7717;47.792;12.076;2023-07-20T03:49:39;5.27;;;4.00;;
15228;SDS011;7717;47.792;12.076;2023-07-20T03:52:07;6.27;;;4.20;;
15228;SDS011;7717;47.792;12.076;2023-07-20T03:54:33;6.00;;;4.17;;
15228;SDS011;7717;47.792;12.076;2023-07-20T03:56:58;4.77;;;4.37;;
15228;SDS011;7717;47.792;12.076;2023-07-20T03:59:24;4.10;;;3.70;;
15228;SDS011;7717;47.792;12.076;2023-07-20T04:01:49;4.43;;;4.03;;
15228;SDS011;7717;47.792;12.076;2023-07-20T04:04:15;5.63;;;4.10;;
15228;SDS011;7717;47.792;12.076;2023-07-20T04:06:41;6.03;;;5.17;;
15228;SDS011;7717;47.792;12.076;2023-07-20T04:09:09;7.70;;;4.27;;
15228;SDS011;7717;47.792;12.076;2023-07-20T04:11:36;5.27;;;4.37;;
15228;SDS011;7717;47.792;12.076;2023-07-20T04:14:01;4.93;;;4.10;;
15228;SDS011;7717;47.792;12.076;2023-07-20T04:16:27;4.93;;;4.20;;
15228;SDS011;7717;47.792;12.076;2023-07-20T04:18:54;7.67;;;3.90;;
15228;SDS011;7717;47.792;12.076;2023-07-20T04:21:20;5.50;;;4.90;;
15228;SDS011;7717;47.792;12.076;2023-07-20T04:23:45;4.83;;;3.63;;
15228;SDS011;7717;47.792;12.076;2023-07-20T04:26:11;6.77;;;3.93;;
15228;SDS011;7717;47.792;12.076;2023-07-20T04:28:37;5.40;;;4.10;;
15228;SDS011;7717;47.792;12.076;2023-07-20T04:31:14;3.73;;;3.23;;
15228;SDS011;7717;47.792;12.076;2023-07-20T04:33:41;8.50;;;4.70;;
15228;SDS011;7717;47.792;12.076;2023-07-20T04:36:10;5.63;;;4.10;;
15228;SDS011;7717;47.792;12.076;2023-07-20T04:38:35;4.20;;;3.83;;
15228;SDS011;7717;47.792;12.076;2023-07-20T04:41:03;5.47;;;4.37;;
15228;SDS011;7717;47.792;12.076;2023-07-20T04:43:29;3.90;;;3.60;;
15228;SDS011;7717;47.792;12.076;2023-07-20T04:45:54;5.10;;;3.83;;
15228;SDS011;7717;47.792;12.076;2023-07-20T04:48:20;4.37;;;4.07;;
15228;SDS011;7717;47.792;12.076;2023-07-20T04:50:45;5.53;;;3.97;;
15228;SDS011;7717;47.792;12.076;2023-07-20T04:53:12;3.87;;;3.53;;
15228;SDS011;7717;47.792;12.076;2023-07-20T04:55:38;5.77;;;4.20;;
15228;SDS011;7717;47.792;12.076;2023-07-20T04:58:04;6.23;;;4.20;;
15228;SDS011;7717;47.792;12.076;2023-07-20T05:00:30;5.13;;;4.37;;
15228;SDS011;7717;47.792;12.076;2023-07-20T05:02:57;4.63;;;3.63;;
15228;SDS011;7717;47.792;12.076;2023-07-20T05:05:25;5.20;;;3.60;;
15228;SDS011;7717;47.792;12.076;2023-07-20T05:07:51;3.80;;;3.30;;
15228;SDS011;7717;47.792;12.076;2023-07-20T05:10:16;3.60;;;3.07;;
15228;SDS011;7717;47.792;12.076;2023-07-20T05:12:42;4.07;;;3.60;;
15228;SDS011;7717;47.792;12.076;2023-07-20T05:15:08;4.47;;;2.90;;
15228;SDS011;7717;47.792;12.076;2023-07-20T05:17:34;3.30;;;3.07;;
15228;SDS011;7717;47.792;12.076;2023-07-20T05:19:59;3.80;;;2.87;;
15228;SDS011;7717;47.792;12.076;2023-07-20T05:22:24;3.23;;;2.67;;
15228;SDS011;7717;47.792;12.076;2023-07-20T05:24:50;3.73;;;3.13;;
15228;SDS011;7717;47.792;12.076;2023-07-20T05:27:15;3.63;;;3.10;;
15228;SDS011;7717;47.792;12.076;2023-07-20T05:29:44;5.13;;;3.30;;
15228;SDS011;7717;47.792;12.076;2023-07-20T05:32:10;4.03;;;2.90;;
15228;SDS011;7717;47.792;12.076;2023-07-20T05:34:40;4.43;;;3.10;;
15228;SDS011;7717;47.792;12.076;2023-07-20T05:37:05;3.13;;;2.83;;
15228;SDS011;7717;47.792;12.076;2023-07-20T05:39:34;3.53;;;3.03;;
15228;SDS011;7717;47.792;12.076;2023-07-20T05:41:59;6.27;;;2.80;;
15228;SDS011;7717;47.792;12.076;2023-07-20T05:44:25;3.10;;;2.63;;
15228;SDS011;7717;47.792;12.076;2023-07-20T05:46:50;3.20;;;2.97;;
15228;SDS011;7717;47.792;12.076;2023-07-20T05:49:16;3.10;;;2.50;;
15228;SDS011;7717;47.792;12.076;2023-07-20T05:51:41;4.53;;;2.60;;
15228;SDS011;7717;47.792;12.076;2023-07-20T05:54:06;2.87;;;2.30;;
15228;SDS011;7717;47.792;12.076;2023-07-20T05:56:32;3.17;;;2.30;;
15228;SDS011;7717;47.792;12.076;2023-07-20T05:58:57;3.03;;;2.30;;
15228;SDS011;7717;47.792;12.076;2023-07-20T06:01:22;2.73;;;2.50;;
15228;SDS011;7717;47.792;12.076;2023-07-20T06:03:48;3.03;;;2.70;;
15228;SDS011;7717;47.792;12.076;2023-07-20T06:06:13;2.73;;;2.50;;
15228;SDS011;7717;47.792;12.076;2023-07-20T06:08:42;3.33;;;2.57;;
15228;SDS011;7717;47.792;12.076;2023-07-20T06:11:08;3.90;;;3.00;;
15228;SDS011;7717;47.792;12.076;2023-07-20T06:13:33;5.50;;;2.77;;
15228;SDS011;7717;47.792;12.076;2023-07-20T06:15:58;4.40;;;2.80;;
15228;SDS011;7717;47.792;12.076;2023-07-20T06:18:24;2.83;;;2.63;;
15228;SDS011;7717;47.792;12.076;2023-07-20T06:20:50;3.67;;;3.20;;
15228;SDS011;7717;47.792;12.076;2023-07-20T06:23:16;4.27;;;3.00;;
15228;SDS011;7717;47.792;12.076;2023-07-20T06:25:45;5.57;;;2.60;;
15228;SDS011;7717;47.792;12.076;2023-07-20T06:28:10;4.17;;;2.80;;
15228;SDS011;7717;47.792;12.076;2023-07-20T06:30:36;3.03;;;2.80;;
15228;SDS011;7717;47.792;12.076;2023-07-20T06:33:01;4.93;;;2.70;;
15228;SDS011;7717;47.792;12.076;2023-07-20T06:35:26;3.37;;;2.90;;
15228;SDS011;7717;47.792;12.076;2023-07-20T06:37:52;4.23;;;2.63;;
15228;SDS011;7717;47.792;12.076;2023-07-20T06:40:17;3.10;;;2.80;;
15228;SDS011;7717;47.792;12.076;2023-07-20T06:42:46;2.50;;;2.20;;
15228;SDS011;7717;47.792;12.076;2023-07-20T06:45:11;2.50;;;2.30;;
15228;SDS011;7717;47.792;12.076;2023-07-20T06:47:38;4.10;;;2.57;;
15228;SDS011;7717;47.792;12.076;2023-07-20T06:50:05;3.03;;;2.43;;
15228;SDS011;7717;47.792;12.076;2023-07-20T06:52:31;2.43;;;2.13;;
15228;SDS011;7717;47.792;12.076;2023-07-20T06:54:57;2.20;;;1.87;;
15228;SDS011;7717;47.792;12.076;2023-07-20T06:57:22;3.03;;;2.10;;
15228;SDS011;7717;47.792;12.076;2023-07-20T06:59:48;3.07;;;2.00;;
15228;SDS011;7717;47.792;12.076;2023-07-20T07:02:14;2.43;;;2.23;;
15228;SDS011;7717;47.792;12.076;2023-07-20T07:04:39;5.23;;;2.10;;
15228;SDS011;7717;47.792;12.076;2023-07-20T07:07:05;2.43;;;2.17;;
15228;SDS011;7717;47.792;12.076;2023-07-20T07:09:30;2.90;;;1.93;;
15228;SDS011;7717;47.792;12.076;2023-07-20T07:11:56;5.37;;;2.50;;
15228;SDS011;7717;47.792;12.076;2023-07-20T07:14:22;2.80;;;1.93;;
15228;SDS011;7717;47.792;12.076;2023-07-20T07:16:48;2.83;;;2.63;;
15228;SDS011;7717;47.792;12.076;2023-07-20T07:19:13;3.73;;;2.00;;
15228;SDS011;7717;47.792;12.076;2023-07-20T07:21:38;3.07;;;2.10;;
15228;SDS011;7717;47.792;12.076;2023-07-20T07:24:04;3.20;;;2.00;;
15228;SDS011;7717;47.792;12.076;2023-07-20T07:26:32;4.90;;;2.40;;
15228;SDS011;7717;47.792;12.076;2023-07-20T07:28:58;3.00;;;2.00;;
15228;SDS011;7717;47.792;12.076;2023-07-20T07:31:26;3.83;;;2.10;;
15228;SDS011;7717;47.792;12.076;2023-07-20T07:33:52;5.27;;;2.63;;
15228;SDS011;7717;47.792;12.076;2023-07-20T07:36:17;2.90;;;2.27;;
15228;SDS011;7717;47.792;12.076;2023-07-20T07:38:43;3.40;;;2.40;;
15228;SDS011;7717;47.792;12.076;2023-07-20T07:41:08;4.10;;;2.40;;
15228;SDS011;7717;47.792;12.076;2023-07-20T07:43:34;3.23;;;2.50;;
15228;SDS011;7717;47.792;12.076;2023-07-20T07:46:00;5.13;;;2.60;;
15228;SDS011;7717;47.792;12.076;2023-07-20T07:48:28;2.93;;;2.27;;
15228;SDS011;7717;47.792;12.076;2023-07-20T07:50:54;2.33;;;2.07;;
15228;SDS011;7717;47.792;12.076;2023-07-20T07:53:19;2.40;;;2.20;;
15228;SDS011;7717;47.792;12.076;2023-07-20T07:55:45;4.07;;;2.47;;
15228;SDS011;7717;47.792;12.076;2023-07-20T07:58:12;4.07;;;2.47;;
15228;SDS011;7717;47.792;12.076;2023-07-20T08:00:38;2.90;;;2.63;;
15228;SDS011;7717;47.792;12.076;2023-07-20T08:03:05;3.13;;;2.23;;
15228;SDS011;7717;47.792;12.076;2023-07-20T08:05:31;3.63;;;2.50;;
15228;SDS011;7717;47.792;12.076;2023-07-20T08:07:57;2.70;;;1.87;;
15228;SDS011;7717;47.792;12.076;2023-07-20T08:10:22;2.50;;;2.30;;
15228;SDS011;7717;47.792;12.076;2023-07-20T08:12:47;4.10;;;2.40;;
15228;SDS011;7717;47.792;12.076;2023-07-20T08:15:13;3.10;;;2.20;;
15228;SDS011;7717;47.792;12.076;2023-07-20T08:17:39;4.60;;;2.20;;
15228;SDS011;7717;47.792;12.076;2023-07-20T08:20:05;2.57;;;2.17;;
15228;SDS011;7717;47.792;12.076;2023-07-20T08:22:34;1.90;;;1.70;;
15228;SDS011;7717;47.792;12.076;2023-07-20T08:24:59;3.20;;;2.00;;
15228;SDS011;7717;47.792;12.076;2023-07-20T08:27:24;4.57;;;1.97;;
15228;SDS011;7717;47.792;12.076;2023-07-20T08:29:50;2.20;;;1.77;;
15228;SDS011;7717;47.792;12.076;2023-07-20T08:32:16;1.98;;;1.77;;
15228;SDS011;7717;47.792;12.076;2023-07-20T08:34:41;2.00;;;1.90;;
15228;SDS011;7717;47.792;12.076;2023-07-20T08:37:07;2.70;;;2.00;;
15228;SDS011;7717;47.792;12.076;2023-07-20T08:39:35;1.98;;;1.80;;
15228;SDS011;7717;47.792;12.076;2023-07-20T08:42:01;1.73;;;1.60;;
15228;SDS011;7717;47.792;12.076;2023-07-20T08:44:29;2.08;;;1.73;;
15228;SDS011;7717;47.792;12.076;2023-07-20T08:47:00;1.65;;;1.55;;
15228;SDS011;7717;47.792;12.076;2023-07-20T08:49:32;3.58;;;1.50;;
15228;SDS011;7717;47.792;12.076;2023-07-20T08:51:59;2.72;;;2.00;;
15228;SDS011;7717;47.792;12.076;2023-07-20T08:54:26;1.73;;;1.63;;
15228;SDS011;7717;47.792;12.076;2023-07-20T08:56:54;2.53;;;1.73;;
15228;SDS011;7717;47.792;12.076;2023-07-20T08:59:22;2.38;;;1.70;;
15228;SDS011;7717;47.792;12.076;2023-07-20T09:01:49;2.47;;;1.63;;
15228;SDS011;7717;47.792;12.076;2023-07-20T09:04:17;1.60;;;1.50;;
15228;SDS011;7717;47.792;12.076;2023-07-20T09:06:43;2.30;;;1.65;;
15228;SDS011;7717;47.792;12.076;2023-07-20T09:09:08;4.32;;;1.55;;
15228;SDS011;7717;47.792;12.076;2023-07-20T09:11:34;2.35;;;1.50;;
15228;SDS011;7717;47.792;12.076;2023-07-20T09:14:03;2.00;;;1.63;;
15228;SDS011;7717;47.792;12.076;2023-07-20T09:16:29;2.00;;;1.60;;
15228;SDS011;7717;47.792;12.076;2023-07-20T09:18:57;2.40;;;1.75;;
15228;SDS011;7717;47.792;12.076;2023-07-20T09:21:23;1.73;;;1.40;;
15228;SDS011;7717;47.792;12.076;2023-07-20T09:23:48;4.18;;;1.50;;
15228;SDS011;7717;47.792;12.076;2023-07-20T09:26:18;2.05;;;1.73;;
15228;SDS011;7717;47.792;12.076;2023-07-20T09:28:44;2.53;;;1.52;;
15228;SDS011;7717;47.792;12.076;2023-07-20T09:31:20;1.85;;;1.50;;
15228;SDS011;7717;47.792;12.076;2023-07-20T09:33:46;2.70;;;1.85;;
15228;SDS011;7717;47.792;12.076;2023-07-20T09:36:13;3.03;;;1.85;;
15228;SDS011;7717;47.792;12.076;2023-07-20T09:38:40;2.08;;;1.67;;
15228;SDS011;7717;47.792;12.076;2023-07-20T09:41:12;2.35;;;1.75;;
15228;SDS011;7717;47.792;12.076;2023-07-20T09:43:41;2.30;;;1.50;;
15228;SDS011;7717;47.792;12.076;2023-07-20T09:46:06;3.08;;;2.15;;
15228;SDS011;7717;47.792;12.076;2023-07-20T09:48:32;1.60;;;1.50;;
15228;SDS011;7717;47.792;12.076;2023-07-20T09:50:57;1.60;;;1.50;;
15228;SDS011;7717;47.792;12.076;2023-07-20T09:53:24;2.85;;;1.67;;
15228;SDS011;7717;47.792;12.076;2023-07-20T09:55:50;2.70;;;1.85;;
15228;SDS011;7717;47.792;12.076;2023-07-20T09:58:17;3.25;;;1.70;;
15228;SDS011;7717;47.792;12.076;2023-07-20T10:00:42;2.22;;;1.60;;
15228;SDS011;7717;47.792;12.076;2023-07-20T10:03:13;1.83;;;1.65;;
15228;SDS011;7717;47.792;12.076;2023-07-20T10:05:43;1.88;;;1.63;;
15228;SDS011;7717;47.792;12.076;2023-07-20T10:08:12;2.53;;;1.60;;
15228;SDS011;7717;47.792;12.076;2023-07-20T10:10:47;1.90;;;1.60;;
15228;SDS011;7717;47.792;12.076;2023-07-20T10:13:21;2.92;;;1.58;;
15228;SDS011;7717;47.792;12.076;2023-07-20T10:15:53;2.28;;;1.92;;
15228;SDS011;7717;47.792;12.076;2023-07-20T10:18:30;2.33;;;1.73;;
15228;SDS011;7717;47.792;12.076;2023-07-20T10:21:00;3.20;;;2.00;;
15228;SDS011;7717;47.792;12.076;2023-07-20T10:23:28;2.80;;;1.70;;
15228;SDS011;7717;47.792;12.076;2023-07-20T10:25:54;1.83;;;1.73;;
15228;SDS011;7717;47.792;12.076;2023-07-20T10:28:21;1.85;;;1.60;;
15228;SDS011;7717;47.792;12.076;2023-07-20T10:30:48;2.28;;;1.60;;
15228;SDS011;7717;47.792;12.076;2023-07-20T10:33:15;2.33;;;1.52;;
15228;SDS011;7717;47.792;12.076;2023-07-20T10:43:57;1.70;;;1.60;;
15228;SDS011;7717;47.792;12.076;2023-07-20T10:49:03;3.25;;;1.55;;
15228;SDS011;7717;47.792;12.076;2023-07-20T10:51:30;2.08;;;1.50;;
15228;SDS011;7717;47.792;12.076;2023-07-20T10:54:03;2.15;;;1.67;;
15228;SDS011;7717;47.792;12.076;2023-07-20T10:56:28;2.10;;;1.58;;
15228;SDS011;7717;47.792;12.076;2023-07-20T10:59:00;2.38;;;1.60;;
15228;SDS011;7717;47.792;12.076;2023-07-20T11:01:29;2.83;;;1.60;;
15228;SDS011;7717;47.792;12.076;2023-07-20T11:03:59;1.88;;;1.77;;
15228;SDS011;7717;47.792;12.076;2023-07-20T11:09:03;2.55;;;1.67;;
15228;SDS011;7717;47.792;12.076;2023-07-20T11:11:36;2.22;;;1.77;;
15228;SDS011;7717;47.792;12.076;2023-07-20T11:14:06;2.30;;;1.70;;
15228;SDS011;7717;47.792;12.076;2023-07-20T11:16:33;3.20;;;1.75;;
15228;SDS011;7717;47.792;12.076;2023-07-20T11:19:04;1.95;;;1.75;;
15228;SDS011;7717;47.792;12.076;2023-07-20T11:21:37;2.00;;;1.80;;
15228;SDS011;7717;47.792;12.076;2023-07-20T11:24:04;1.95;;;1.75;;
15228;SDS011;7717;47.792;12.076;2023-07-20T11:26:30;3.88;;;2.15;;
15228;SDS011;7717;47.792;12.076;2023-07-20T11:28:55;2.58;;;1.98;;
15228;SDS011;7717;47.792;12.076;2023-07-20T11:31:20;4.18;;;1.83;;
15228;SDS011;7717;47.792;12.076;2023-07-20T11:33:46;2.75;;;2.00;;
15228;SDS011;7717;47.792;12.076;2023-07-20T11:36:13;2.25;;;2.05;;
15228;SDS011;7717;47.792;12.076;2023-07-20T11:38:42;2.13;;;1.80;;
15228;SDS011;7717;47.792;12.076;2023-07-20T11:41:11;2.35;;;1.60;;
15228;SDS011;7717;47.792;12.076;2023-07-20T11:43:37;2.92;;;1.95;;
15228;SDS011;7717;47.792;12.076;2023-07-20T11:46:04;4.82;;;2.03;;
15228;SDS011;7717;47.792;12.076;2023-07-20T11:48:30;2.22;;;1.90;;
15228;SDS011;7717;47.792;12.076;2023-07-20T11:50:55;3.95;;;2.08;;
15228;SDS011;7717;47.792;12.076;2023-07-20T11:53:21;1.80;;;1.70;;
15228;SDS011;7717;47.792;12.076;2023-07-20T11:55:56;2.50;;;1.90;;
15228;SDS011;7717;47.792;12.076;2023-07-20T11:58:22;1.83;;;1.70;;
15228;SDS011;7717;47.792;12.076;2023-07-20T12:00:47;2.67;;;2.10;;
15228;SDS011;7717;47.792;12.076;2023-07-20T12:03:13;3.65;;;1.80;;
15228;SDS011;7717;47.792;12.076;2023-07-20T12:05:38;5.03;;;2.17;;
15228;SDS011;7717;47.792;12.076;2023-07-20T12:08:04;3.05;;;1.98;;
15228;SDS011;7717;47.792;12.076;2023-07-20T12:10:30;3.10;;;1.77;;
15228;SDS011;7717;47.792;12.076;2023-07-20T12:13:00;5.72;;;2.00;;
15228;SDS011;7717;47.792;12.076;2023-07-20T12:15:28;3.38;;;1.90;;
15228;SDS011;7717;47.792;12.076;2023-07-20T12:17:59;2.00;;;1.80;;
15228;SDS011;7717;47.792;12.076;2023-07-20T12:20:30;2.42;;;2.08;;
15228;SDS011;7717;47.792;12.076;2023-07-20T12:23:04;1.88;;;1.70;;
15228;SDS011;7717;47.792;12.076;2023-07-20T12:25:39;1.92;;;1.73;;
15228;SDS011;7717;47.792;12.076;2023-07-20T12:28:08;2.40;;;2.20;;
15228;SDS011;7717;47.792;12.076;2023-07-20T12:30:34;2.10;;;1.95;;
15228;SDS011;7717;47.792;12.076;2023-07-20T12:33:01;3.45;;;2.35;;
15228;SDS011;7717;47.792;12.076;2023-07-20T12:35:27;2.10;;;2.00;;
15228;SDS011;7717;47.792;12.076;2023-07-20T12:37:57;3.83;;;2.10;;
15228;SDS011;7717;47.792;12.076;2023-07-20T12:40:23;3.25;;;1.90;;
15228;SDS011;7717;47.792;12.076;2023-07-20T12:42:48;3.95;;;2.30;;
15228;SDS011;7717;47.792;12.076;2023-07-20T12:45:14;1.95;;;1.80;;
15228;SDS011;7717;47.792;12.076;2023-07-20T12:47:39;4.13;;;2.05;;
15228;SDS011;7717;47.792;12.076;2023-07-20T12:50:06;4.38;;;2.40;;
15228;SDS011;7717;47.792;12.076;2023-07-20T12:52:35;1.90;;;1.80;;
15228;SDS011;7717;47.792;12.076;2023-07-20T12:55:01;3.03;;;2.10;;
15228;SDS011;7717;47.792;12.076;2023-07-20T12:57:27;2.45;;;2.08;;
15228;SDS011;7717;47.792;12.076;2023-07-20T12:59:52;3.08;;;2.25;;
15228;SDS011;7717;47.792;12.076;2023-07-20T13:02:18;2.13;;;1.92;;
15228;SDS011;7717;47.792;12.076;2023-07-20T13:04:43;2.75;;;2.17;;
15228;SDS011;7717;47.792;12.076;2023-07-20T13:07:09;2.22;;;2.03;;
15228;SDS011;7717;47.792;12.076;2023-07-20T13:09:38;3.17;;;2.50;;
15228;SDS011;7717;47.792;12.076;2023-07-20T13:12:03;2.30;;;2.10;;
15228;SDS011;7717;47.792;12.076;2023-07-20T13:14:29;4.25;;;2.30;;
15228;SDS011;7717;47.792;12.076;2023-07-20T13:16:55;4.00;;;2.13;;
15228;SDS011;7717;47.792;12.076;2023-07-20T13:19:21;2.42;;;2.22;;
15228;SDS011;7717;47.792;12.076;2023-07-20T13:21:46;2.45;;;2.25;;
15228;SDS011;7717;47.792;12.076;2023-07-20T13:24:12;4.20;;;2.38;;
15228;SDS011;7717;47.792;12.076;2023-07-20T13:26:37;2.20;;;2.00;;
15228;SDS011;7717;47.792;12.076;2023-07-20T13:29:03;4.57;;;2.20;;
15228;SDS011;7717;47.792;12.076;2023-07-20T13:31:28;2.80;;;1.92;;
15228;SDS011;7717;47.792;12.076;2023-07-20T13:33:54;5.13;;;2.65;;
15228;SDS011;7717;47.792;12.076;2023-07-20T13:36:20;2.38;;;2.17;;
15228;SDS011;7717;47.792;12.076;2023-07-20T13:38:46;2.42;;;2.22;;
15228;SDS011;7717;47.792;12.076;2023-07-20T13:41:11;3.20;;;2.33;;
15228;SDS011;7717;47.792;12.076;2023-07-20T13:43:37;2.55;;;2.30;;
15228;SDS011;7717;47.792;12.076;2023-07-20T13:46:05;3.70;;;2.13;;
15228;SDS011;7717;47.792;12.076;2023-07-20T13:48:33;2.80;;;1.90;;
15228;SDS011;7717;47.792;12.076;2023-07-20T13:50:59;2.63;;;2.42;;
15228;SDS011;7717;47.792;12.076;2023-07-20T13:53:24;2.28;;;2.08;;
15228;SDS011;7717;47.792;12.076;2023-07-20T13:55:50;2.42;;;1.90;;
15228;SDS011;7717;47.792;12.076;2023-07-20T13:58:17;2.38;;;2.10;;
15228;SDS011;7717;47.792;12.076;2023-07-20T14:00:43;2.47;;;2.28;;
15228;SDS011;7717;47.792;12.076;2023-07-20T14:03:08;2.60;;;1.92;;
15228;SDS011;7717;47.792;12.076;2023-07-20T14:05:34;2.67;;;2.47;;
15228;SDS011;7717;47.792;12.076;2023-07-20T14:08:00;4.60;;;2.33;;
15228;SDS011;7717;47.792;12.076;2023-07-20T14:10:26;3.45;;;2.35;;
15228;SDS011;7717;47.792;12.076;2023-07-20T14:12:51;2.85;;;2.08;;
15228;SDS011;7717;47.792;12.076;2023-07-20T14:15:16;5.25;;;2.20;;
15228;SDS011;7717;47.792;12.076;2023-07-20T14:17:44;3.20;;;2.33;;
15228;SDS011;7717;47.792;12.076;2023-07-20T14:20:09;2.25;;;2.05;;
15228;SDS011;7717;47.792;12.076;2023-07-20T14:22:35;2.50;;;2.30;;
15228;SDS011;7717;47.792;12.076;2023-07-20T14:25:00;4.50;;;2.30;;
15228;SDS011;7717;47.792;12.076;2023-07-20T14:27:26;4.35;;;2.10;;
15228;SDS011;7717;47.792;12.076;2023-07-20T14:29:51;2.75;;;2.40;;
15228;SDS011;7717;47.792;12.076;2023-07-20T14:32:21;2.72;;;2.53;;
15228;SDS011;7717;47.792;12.076;2023-07-20T14:34:46;2.80;;;1.92;;
15228;SDS011;7717;47.792;12.076;2023-07-20T14:37:11;2.53;;;2.33;;
15228;SDS011;7717;47.792;12.076;2023-07-20T14:39:38;2.72;;;2.40;;
15228;SDS011;7717;47.792;12.076;2023-07-20T14:42:03;4.35;;;2.13;;
15228;SDS011;7717;47.792;12.076;2023-07-20T14:44:29;2.83;;;2.63;;
15228;SDS011;7717;47.792;12.076;2023-07-20T14:46:54;2.03;;;1.92;;
15228;SDS011;7717;47.792;12.076;2023-07-20T14:49:20;2.80;;;2.40;;
15228;SDS011;7717;47.792;12.076;2023-07-20T14:51:46;2.83;;;2.20;;
15228;SDS011;7717;47.792;12.076;2023-07-20T14:54:12;3.00;;;2.40;;
15228;SDS011;7717;47.792;12.076;2023-07-20T14:56:38;2.50;;;2.28;;
15228;SDS011;7717;47.792;12.076;2023-07-20T14:59:04;3.78;;;2.33;;
15228;SDS011;7717;47.792;12.076;2023-07-20T15:01:30;2.80;;;2.53;;
15228;SDS011;7717;47.792;12.076;2023-07-20T15:03:56;2.65;;;2.20;;